Time;durP1;ratioP1;P1;durP2;ratioP2;P2;SDS_P1;SDS_P2;PMS_P1;PMS_P2;Temp;Humidity;BMP_temperature;BMP_pressure;BME280_temperature;BME280_humidity;BME280_pressure;Samples;Min_cycle;Max_cycle;Signal;HPM_P1;HPM_P2
2022/11/26 00:02:59;;;;;;;15.43;2.88;;;13.40;59.40;;;;;;6097981;29;20115;-80
2022/11/26 00:06:01;;;;;;;15.15;3.13;;;13.40;59.40;;;;;;6093775;29;20516;-79
2022/11/26 00:09:11;;;;;;;7.75;2.20;;;13.40;59.30;;;;;;6090327;28;20480;-79
2022/11/26 00:12:19;;;;;;;8.48;2.00;;;13.30;59.20;;;;;;6079569;29;20040;-80
2022/11/26 00:15:26;;;;;;;8.18;1.90;;;13.30;59.30;;;;;;6097916;29;20441;-79
2022/11/26 00:18:26;;;;;;;7.75;2.00;;;13.30;59.30;;;;;;6086373;29;20060;-79
2022/11/26 00:21:27;;;;;;;11.32;2.75;;;13.20;59.20;;;;;;6091688;29;20040;-80
2022/11/26 00:24:29;;;;;;;6.97;2.00;;;13.30;59.30;;;;;;6091065;29;20389;-80
2022/11/26 00:27:30;;;;;;;6.65;1.92;;;13.20;59.30;;;;;;6090373;29;20044;-79
2022/11/26 00:30:31;;;;;;;5.53;1.92;;;13.20;59.30;;;;;;6088609;29;20037;-80
2022/11/26 00:33:32;;;;;;;9.20;2.55;;;13.20;59.30;;;;;;6078482;29;20554;-78
2022/11/26 00:36:33;;;;;;;6.78;2.00;;;13.20;59.20;;;;;;6108529;29;20068;-78
2022/11/26 00:39:35;;;;;;;6.75;2.05;;;13.20;59.10;;;;;;6101654;29;20723;-79
2022/11/26 00:42:37;;;;;;;5.50;2.13;;;13.20;59.10;;;;;;6110114;29;20045;-79
2022/11/26 00:45:37;;;;;;;3.03;1.45;;;13.20;59.10;;;;;;6108279;29;20095;-79
2022/11/26 00:48:38;;;;;;;5.00;1.92;;;13.20;59.10;;;;;;6104811;29;20123;-79
2022/11/26 00:51:40;;;;;;;7.80;2.42;;;13.20;59.10;;;;;;6095952;28;20032;-79
2022/11/26 00:54:41;;;;;;;8.50;2.03;;;13.20;59.10;;;;;;6102021;29;20079;-79
2022/11/26 00:57:42;;;;;;;12.27;2.22;;;13.20;59.10;;;;;;6110472;29;20041;-79
2022/11/26 01:00:43;;;;;;;3.65;1.77;;;13.20;59.20;;;;;;6100922;29;20044;-79
2022/11/26 01:03:44;;;;;;;12.50;2.78;;;13.10;59.10;;;;;;6106207;29;20055;-80
2022/11/26 01:06:45;;;;;;;14.25;3.65;;;13.10;59.20;;;;;;6097554;29;20063;-79
2022/11/26 01:09:47;;;;;;;1.88;1.35;;;13.10;59.20;;;;;;6098918;29;20096;-78
2022/11/26 01:12:48;;;;;;;8.93;2.00;;;13.00;59.10;;;;;;6108632;29;20032;-79
2022/11/26 01:15:49;;;;;;;5.25;2.15;;;13.10;59.20;;;;;;6105652;29;20135;-81
2022/11/26 01:18:52;;;;;;;6.53;2.30;;;13.10;59.20;;;;;;6099128;29;20047;-79
2022/11/26 01:21:54;;;;;;;5.07;2.22;;;13.10;59.30;;;;;;6099463;29;20036;-79
2022/11/26 01:24:55;;;;;;;13.68;2.67;;;13.10;59.30;;;;;;6103892;29;20044;-80
2022/11/26 01:27:57;;;;;;;9.15;2.53;;;13.10;59.30;;;;;;6117949;29;20044;-79
2022/11/26 01:30:58;;;;;;;10.05;2.53;;;13.10;59.30;;;;;;6102023;29;20219;-79
2022/11/26 01:34:00;;;;;;;5.28;1.73;;;13.10;59.30;;;;;;6091298;29;20053;-79
2022/11/26 01:37:01;;;;;;;7.40;1.75;;;13.10;59.20;;;;;;6094847;29;20052;-79
2022/11/26 01:40:02;;;;;;;4.72;2.05;;;13.10;59.30;;;;;;6083766;29;20398;-79
2022/11/26 01:43:19;;;;;;;9.38;2.75;;;13.10;59.30;;;;;;6114971;29;20067;-79
2022/11/26 01:46:21;;;;;;;6.80;2.72;;;13.00;59.50;;;;;;6086251;29;20048;-79
2022/11/26 01:49:31;;;;;;;7.80;2.20;;;13.00;59.70;;;;;;6099523;29;20127;-79
2022/11/26 01:52:32;;;;;;;6.15;2.22;;;12.90;59.90;;;;;;6088650;29;20033;-79
2022/11/26 01:55:46;;;;;;;4.68;2.17;;;12.90;60.00;;;;;;6094866;29;20040;-79
2022/11/26 01:58:57;;;;;;;10.25;2.42;;;12.80;60.10;;;;;;6098572;29;20024;-79
2022/11/26 02:01:59;;;;;;;5.57;1.98;;;12.80;60.10;;;;;;6079891;29;20080;-79
2022/11/26 02:05:18;;;;;;;9.55;2.70;;;12.80;60.00;;;;;;6098634;29;20423;-79
2022/11/26 02:08:19;;;;;;;5.30;1.85;;;12.80;60.00;;;;;;6086013;29;20385;-79
2022/11/26 02:11:22;;;;;;;13.85;2.60;;;12.80;60.00;;;;;;6091728;29;20067;-78
2022/11/26 02:14:34;;;;;;;4.68;2.50;;;12.80;59.90;;;;;;6093970;29;20067;-78
2022/11/26 02:18:03;;;;;;;5.13;2.88;;;12.80;60.00;;;;;;6070755;29;20415;-79
2022/11/26 02:21:07;;;;;;;;;;;12.80;60.20;;;;;;6093368;28;20734;-79
2022/11/26 02:24:14;;;;;;;7.68;2.70;;;12.70;60.30;;;;;;6090866;29;19926;-79
2022/11/26 02:27:33;;;;;;;16.38;3.22;;;12.60;60.50;;;;;;6089104;29;20044;-79
2022/11/26 02:30:36;;;;;;;;;;;12.50;60.90;;;;;;6088091;29;20193;-79
2022/11/26 02:33:50;;;;;;;11.40;2.75;;;12.50;61.20;;;;;;6093046;29;19923;-79
2022/11/26 02:37:17;;;;;;;7.13;3.13;;;12.40;61.30;;;;;;6084263;29;20036;-80
2022/11/26 02:40:20;;;;;;;4.25;2.15;;;12.40;61.50;;;;;;6090064;29;20048;-80
2022/11/26 02:43:22;;;;;;;11.82;2.80;;;12.40;61.80;;;;;;6084300;29;20085;-79
2022/11/26 02:46:23;;;;;;;8.30;3.05;;;12.30;61.90;;;;;;6076075;29;20351;-80
2022/11/26 02:49:26;;;;;;;11.10;3.22;;;12.30;62.00;;;;;;6092832;29;20041;-80
2022/11/26 02:52:27;;;;;;;12.18;3.28;;;12.30;62.10;;;;;;6091962;29;20047;-78
2022/11/26 02:55:33;;;;;;;5.00;2.38;;;12.30;62.20;;;;;;6094148;29;20076;-79
2022/11/26 02:58:35;;;;;;;9.32;3.20;;;12.20;62.20;;;;;;6094531;29;20043;-78
2022/11/26 03:01:43;;;;;;;10.77;2.90;;;12.20;62.40;;;;;;6087570;29;20036;-79
2022/11/26 03:04:47;;;;;;;6.22;2.45;;;12.10;62.50;;;;;;6093659;29;20564;-80
2022/11/26 03:07:50;;;;;;;7.53;2.60;;;12.00;62.60;;;;;;6076098;29;20093;-79
2022/11/26 03:10:51;;;;;;;10.57;2.47;;;12.00;62.60;;;;;;6078209;29;20370;-79
2022/11/26 03:13:52;;;;;;;6.93;2.15;;;12.00;62.60;;;;;;6087907;29;20039;-79
2022/11/26 03:16:53;;;;;;;10.10;2.38;;;12.00;62.70;;;;;;6081253;29;20059;-79
2022/11/26 03:19:54;;;;;;;8.95;2.42;;;11.90;62.70;;;;;;6103422;29;20070;-79
2022/11/26 03:22:54;;;;;;;9.45;1.70;;;11.90;62.80;;;;;;6088679;29;20091;-79
2022/11/26 03:25:55;;;;;;;4.78;1.42;;;12.00;63.00;;;;;;6083004;29;20499;-80
2022/11/26 03:28:56;;;;;;;3.72;1.60;;;11.90;62.80;;;;;;6083077;29;20070;-80
2022/11/26 03:31:57;;;;;;;4.18;1.30;;;12.00;62.80;;;;;;6090726;29;20041;-79
2022/11/26 03:34:58;;;;;;;5.88;1.80;;;12.00;62.70;;;;;;6082214;29;20490;-79
2022/11/26 03:37:59;;;;;;;3.80;1.75;;;11.90;62.60;;;;;;6090098;29;20055;-79
2022/11/26 03:41:02;;;;;;;6.95;2.45;;;11.90;62.60;;;;;;6088366;29;20096;-81
2022/11/26 03:44:03;;;;;;;4.55;1.88;;;11.90;62.60;;;;;;6083898;29;20040;-79
2022/11/26 03:47:04;;;;;;;5.90;2.03;;;11.80;62.70;;;;;;6108466;29;20052;-80
2022/11/26 03:50:06;;;;;;;7.15;1.67;;;11.80;62.80;;;;;;6087953;29;20590;-79
2022/11/26 03:53:07;;;;;;;5.55;1.70;;;11.80;62.80;;;;;;6094866;29;20493;-79
2022/11/26 03:56:08;;;;;;;6.97;2.13;;;11.80;63.00;;;;;;6082093;29;20120;-79
2022/11/26 03:59:09;;;;;;;15.48;2.35;;;11.70;62.90;;;;;;6092629;29;20062;-79
2022/11/26 04:02:12;;;;;;;5.03;1.80;;;11.70;62.90;;;;;;6089746;29;20051;-79
2022/11/26 04:05:13;;;;;;;3.28;1.67;;;11.70;62.90;;;;;;6093309;29;20040;-79
2022/11/26 04:08:14;;;;;;;13.20;2.05;;;11.70;63.10;;;;;;6103980;29;20498;-80
2022/11/26 04:11:15;;;;;;;2.70;1.52;;;11.60;63.10;;;;;;6086970;29;20059;-80
2022/11/26 04:14:16;;;;;;;7.55;1.65;;;11.60;63.30;;;;;;6094236;29;20473;-80
2022/11/26 04:17:18;;;;;;;7.30;2.28;;;11.50;63.40;;;;;;6105430;29;20131;-80
2022/11/26 04:20:19;;;;;;;6.85;1.77;;;11.40;63.50;;;;;;6078027;29;20045;-79
2022/11/26 04:23:20;;;;;;;7.32;1.98;;;11.50;63.70;;;;;;6081282;29;20052;-79
2022/11/26 04:26:21;;;;;;;4.70;1.75;;;11.50;63.70;;;;;;6088894;29;20045;-78
2022/11/26 04:29:23;;;;;;;7.82;1.55;;;11.40;63.50;;;;;;6087937;29;20064;-78
2022/11/26 04:32:24;;;;;;;8.23;2.28;;;11.40;63.50;;;;;;6097725;29;20060;-79
2022/11/26 04:35:25;;;;;;;3.53;1.15;;;11.40;63.50;;;;;;6090063;29;20139;-79
2022/11/26 04:38:26;;;;;;;3.75;1.88;;;11.40;63.60;;;;;;6100637;29;20402;-79
2022/11/26 04:41:27;;;;;;;4.53;1.77;;;11.40;63.70;;;;;;6081503;29;20048;-80
2022/11/26 04:44:27;;;;;;;11.60;1.58;;;11.40;63.70;;;;;;6100526;29;20048;-79
2022/11/26 04:47:28;;;;;;;9.73;2.20;;;11.40;63.60;;;;;;6095054;28;20505;-79
2022/11/26 04:50:29;;;;;;;8.00;2.70;;;11.50;63.70;;;;;;6080160;29;20337;-79
2022/11/26 04:53:30;;;;;;;9.38;2.50;;;11.50;63.60;;;;;;6096157;29;20059;-79
2022/11/26 04:56:31;;;;;;;11.85;2.95;;;11.40;63.60;;;;;;6093063;29;20036;-78
2022/11/26 04:59:32;;;;;;;5.30;1.95;;;11.40;63.60;;;;;;6090773;29;20533;-78
2022/11/26 05:02:33;;;;;;;6.85;2.33;;;11.40;63.50;;;;;;6094392;29;20053;-79
2022/11/26 05:05:33;;;;;;;10.35;2.55;;;11.50;63.60;;;;;;6106168;29;20115;-79
2022/11/26 05:08:34;;;;;;;5.80;1.70;;;11.50;63.50;;;;;;6084509;29;20136;-78
2022/11/26 05:11:35;;;;;;;6.30;1.73;;;11.40;63.40;;;;;;6068392;29;20052;-79
2022/11/26 05:14:36;;;;;;;6.15;2.10;;;11.40;63.30;;;;;;6101374;29;20044;-79
2022/11/26 05:17:37;;;;;;;4.22;2.00;;;11.40;63.20;;;;;;6075968;29;20125;-79
2022/11/26 05:20:38;;;;;;;5.32;1.80;;;11.30;63.20;;;;;;6089063;29;20059;-78
2022/11/26 05:23:38;;;;;;;4.63;1.70;;;11.30;63.30;;;;;;6102463;29;20048;-79
2022/11/26 05:26:39;;;;;;;10.35;1.92;;;11.20;63.40;;;;;;6090281;29;20048;-79
2022/11/26 05:29:40;;;;;;;6.50;1.60;;;11.20;63.40;;;;;;6092378;29;20040;-79
2022/11/26 05:32:41;;;;;;;10.80;1.77;;;11.20;63.50;;;;;;6080033;29;20044;-80
2022/11/26 05:35:42;;;;;;;3.80;1.50;;;11.10;63.50;;;;;;6099533;29;20544;-78
2022/11/26 05:38:43;;;;;;;9.20;1.77;;;11.10;63.50;;;;;;6089295;29;20181;-79
2022/11/26 05:41:44;;;;;;;10.35;2.20;;;11.20;63.60;;;;;;6093665;28;20454;-78
2022/11/26 05:44:44;;;;;;;3.33;1.58;;;11.20;63.50;;;;;;6085164;29;20037;-79
2022/11/26 05:47:45;;;;;;;5.20;1.40;;;11.30;63.50;;;;;;6091553;29;20487;-79
2022/11/26 05:50:46;;;;;;;7.63;1.83;;;11.30;63.30;;;;;;6093690;29;20045;-79
2022/11/26 05:53:47;;;;;;;3.80;1.30;;;11.40;63.20;;;;;;6098506;29;20374;-79
2022/11/26 05:56:48;;;;;;;3.42;1.60;;;11.40;63.00;;;;;;6100793;29;20048;-81
2022/11/26 05:59:49;;;;;;;6.30;1.63;;;11.40;62.90;;;;;;6101581;29;20055;-79
2022/11/26 06:02:49;;;;;;;5.97;2.15;;;11.50;63.00;;;;;;6096952;29;20493;-78
2022/11/26 06:05:50;;;;;;;11.10;2.17;;;11.40;62.80;;;;;;6090040;29;20033;-78
2022/11/26 06:08:53;;;;;;;3.72;1.52;;;11.50;62.90;;;;;;6090678;29;20040;-79
2022/11/26 06:11:53;;;;;;;6.40;2.22;;;11.50;62.80;;;;;;6084705;29;20079;-80
2022/11/26 06:14:54;;;;;;;11.55;2.08;;;11.50;62.70;;;;;;6093269;29;20045;-80
2022/11/26 06:17:55;;;;;;;11.00;2.13;;;11.50;62.70;;;;;;6093503;29;20036;-79
2022/11/26 06:21:00;;;;;;;5.88;2.58;;;11.50;62.60;;;;;;6087807;29;20096;-80
2022/11/26 06:24:01;;;;;;;6.25;2.17;;;11.50;62.70;;;;;;6094863;29;20477;-80
2022/11/26 06:27:02;;;;;;;4.78;2.38;;;11.50;62.80;;;;;;6079357;29;20072;-79
2022/11/26 06:30:04;;;;;;;5.05;1.73;;;11.50;62.90;;;;;;6093882;29;20111;-79
2022/11/26 06:33:05;;;;;;;4.95;2.33;;;11.40;63.00;;;;;;6087441;29;20032;-79
2022/11/26 06:36:06;;;;;;;10.35;2.35;;;11.40;63.00;;;;;;6104912;29;20091;-79
2022/11/26 06:39:09;;;;;;;5.15;2.17;;;11.30;63.10;;;;;;6086201;29;20124;-79
2022/11/26 06:42:10;;;;;;;8.30;2.42;;;11.30;63.20;;;;;;6089191;29;20135;-79
2022/11/26 06:45:11;;;;;;;5.88;2.13;;;11.30;63.30;;;;;;6103854;29;20029;-79
2022/11/26 06:48:12;;;;;;;4.28;1.92;;;11.30;63.30;;;;;;6091476;29;20056;-79
2022/11/26 06:51:15;;;;;;;4.93;2.10;;;11.20;63.30;;;;;;6099049;29;20059;-80
2022/11/26 06:54:15;;;;;;;5.13;1.95;;;11.30;63.30;;;;;;6091454;29;20598;-79
2022/11/26 06:57:16;;;;;;;5.30;1.70;;;11.20;63.30;;;;;;6091864;29;20040;-79
2022/11/26 07:00:18;;;;;;;9.18;1.90;;;11.20;63.30;;;;;;6096207;29;20047;-80
2022/11/26 07:03:19;;;;;;;4.90;2.03;;;11.20;63.50;;;;;;6089324;29;20040;-80
2022/11/26 07:06:26;;;;;;;8.13;2.35;;;11.10;63.40;;;;;;6092209;29;20055;-79
2022/11/26 07:09:27;;;;;;;4.47;1.95;;;11.10;63.50;;;;;;6093600;29;20036;-79
2022/11/26 07:12:28;;;;;;;7.70;2.10;;;11.00;63.60;;;;;;6087761;29;20101;-79
2022/11/26 07:15:29;;;;;;;7.13;2.08;;;11.00;63.60;;;;;;6092865;29;20096;-79
2022/11/26 07:18:30;;;;;;;13.45;2.47;;;11.00;63.70;;;;;;6100492;28;20520;-80
2022/11/26 07:21:31;;;;;;;5.88;2.90;;;11.00;63.80;;;;;;6103804;29;20128;-80
2022/11/26 07:24:32;;;;;;;9.77;2.30;;;11.00;63.70;;;;;;6083337;29;20045;-79
2022/11/26 07:27:33;;;;;;;8.40;2.10;;;10.90;63.60;;;;;;6081337;29;20051;-80
2022/11/26 07:30:34;;;;;;;4.32;1.90;;;10.90;63.80;;;;;;6094863;29;20040;-81
2022/11/26 07:33:35;;;;;;;6.10;1.90;;;10.90;63.80;;;;;;6097429;29;20485;-80
2022/11/26 07:36:41;;;;;;;5.72;1.73;;;10.90;63.90;;;;;;6097283;29;20052;-81
2022/11/26 07:39:42;;;;;;;3.65;1.88;;;10.90;63.90;;;;;;6097545;29;20051;-79
2022/11/26 07:42:43;;;;;;;5.45;2.53;;;10.90;63.90;;;;;;6100080;29;20037;-79
2022/11/26 07:45:44;;;;;;;8.45;2.00;;;11.00;63.90;;;;;;6101430;29;20108;-80
2022/11/26 07:48:46;;;;;;;6.32;2.67;;;11.00;64.00;;;;;;6085621;29;20064;-79
2022/11/26 07:51:46;;;;;;;11.40;2.70;;;11.10;64.00;;;;;;6083023;29;20411;-79
2022/11/26 07:54:47;;;;;;;5.25;2.65;;;11.10;63.90;;;;;;6087821;29;20099;-79
2022/11/26 07:57:48;;;;;;;12.48;2.47;;;11.20;63.90;;;;;;6096205;29;20458;-79
2022/11/26 08:00:49;;;;;;;4.65;2.22;;;11.20;63.90;;;;;;6094833;29;20393;-79
2022/11/26 08:03:50;;;;;;;10.77;2.35;;;11.20;63.90;;;;;;6091078;29;20457;-80
2022/11/26 08:06:51;;;;;;;3.72;2.03;;;11.30;63.90;;;;;;6082942;29;20044;-80
2022/11/26 08:09:52;;;;;;;10.68;2.67;;;11.30;63.70;;;;;;6089338;29;20099;-80
2022/11/26 08:12:53;;;;;;;8.63;3.10;;;11.40;63.70;;;;;;6084836;29;20160;-79
2022/11/26 08:15:55;;;;;;;8.20;2.97;;;11.50;63.60;;;;;;6085095;29;20101;-79
2022/11/26 08:18:58;;;;;;;4.03;1.85;;;11.60;63.40;;;;;;6081731;29;20036;-79
2022/11/26 08:22:00;;;;;;;5.55;2.70;;;11.60;63.10;;;;;;6098565;29;20476;-79
2022/11/26 08:25:00;;;;;;;11.63;2.80;;;11.60;63.10;;;;;;6086382;29;20044;-80
2022/11/26 08:28:01;;;;;;;6.05;2.53;;;11.70;63.10;;;;;;6093816;29;20062;-80
2022/11/26 08:31:08;;;;;;;5.57;2.38;;;11.80;62.70;;;;;;6092153;29;20036;-79
2022/11/26 08:34:13;;;;;;;6.78;2.47;;;11.90;62.50;;;;;;6081416;29;20128;-79
2022/11/26 08:37:14;;;;;;;8.48;3.13;;;12.00;62.30;;;;;;6092779;29;20044;-79
2022/11/26 08:40:15;;;;;;;6.45;2.65;;;12.10;62.00;;;;;;6081881;29;20044;-80
2022/11/26 08:43:16;;;;;;;7.57;2.97;;;12.10;61.80;;;;;;6092681;29;20040;-80
2022/11/26 08:46:17;;;;;;;6.95;2.75;;;12.20;61.50;;;;;;6085340;29;20048;-79
2022/11/26 08:49:18;;;;;;;13.75;3.67;;;12.30;61.20;;;;;;6095052;29;20055;-79
2022/11/26 08:52:19;;;;;;;7.63;3.40;;;12.30;61.20;;;;;;6085538;29;20075;-80
2022/11/26 08:55:20;;;;;;;7.65;2.85;;;12.40;61.00;;;;;;6101282;29;20044;-80
2022/11/26 08:58:21;;;;;;;8.88;2.55;;;12.40;60.70;;;;;;6091580;29;20044;-80
2022/11/26 09:01:25;;;;;;;10.00;3.03;;;12.50;60.60;;;;;;6091373;29;20112;-80
2022/11/26 09:04:26;;;;;;;9.88;2.20;;;12.60;60.50;;;;;;6097881;29;20047;-80
2022/11/26 09:07:27;;;;;;;8.13;3.20;;;12.60;60.10;;;;;;6089868;29;20040;-80
2022/11/26 09:10:28;;;;;;;9.65;3.40;;;12.60;59.80;;;;;;6095763;29;20122;-78
2022/11/26 09:13:28;;;;;;;9.98;3.15;;;12.60;59.80;;;;;;6094746;29;20075;-79
2022/11/26 09:16:30;;;;;;;7.78;3.22;;;12.60;59.90;;;;;;6090065;29;20137;-80
2022/11/26 09:19:31;;;;;;;8.93;3.85;;;12.60;59.80;;;;;;6090943;29;20426;-80
2022/11/26 09:22:34;;;;;;;8.27;2.78;;;12.60;59.60;;;;;;6095157;29;20041;-79
2022/11/26 09:25:37;;;;;;;14.93;3.58;;;12.50;59.50;;;;;;6096971;29;20044;-79
2022/11/26 09:28:38;;;;;;;9.05;3.83;;;12.50;59.70;;;;;;6083869;29;20060;-79
2022/11/26 09:31:39;;;;;;;13.77;3.45;;;12.50;59.70;;;;;;6078619;29;20112;-81
2022/11/26 09:34:40;;;;;;;10.82;3.58;;;12.50;59.80;;;;;;6083830;29;20044;-80
2022/11/26 09:37:41;;;;;;;12.45;3.50;;;12.50;59.70;;;;;;6102795;29;20462;-79
2022/11/26 09:40:55;;;;;;;14.35;3.47;;;12.50;59.80;;;;;;6109190;29;20044;-80
2022/11/26 09:44:18;;;;;;;8.93;3.28;;;12.50;59.90;;;;;;6105065;29;20442;-81
2022/11/26 09:47:36;;;;;;;9.38;2.40;;;12.60;59.90;;;;;;6081103;29;20040;-80
2022/11/26 09:50:37;;;;;;;6.80;2.40;;;12.60;59.70;;;;;;6086651;29;20104;-79
2022/11/26 09:53:45;;;;;;;11.27;3.40;;;12.60;59.50;;;;;;6072152;29;20052;-79
2022/11/26 09:56:49;;;;;;;10.57;3.25;;;12.70;59.50;;;;;;6082982;28;20036;-80
2022/11/26 09:59:52;;;;;;;7.40;2.22;;;12.80;59.40;;;;;;6088005;29;20081;-79
2022/11/26 10:02:55;;;;;;;5.47;2.78;;;13.00;59.50;;;;;;6086633;29;20043;-80
2022/11/26 10:06:17;;;;;;;13.70;2.15;;;13.10;58.70;;;;;;6076338;29;20036;-79
2022/11/26 10:09:36;;;;;;;7.80;2.78;;;13.30;58.50;;;;;;6082085;29;20044;-80
2022/11/26 10:12:55;;;;;;;5.90;2.40;;;13.50;58.10;;;;;;6088279;29;20093;-80
2022/11/26 10:16:06;;;;;;;10.75;2.85;;;13.60;57.80;;;;;;6109010;29;20100;-79
2022/11/26 10:19:32;;;;;;;7.03;2.17;;;13.80;57.60;;;;;;6086817;29;20052;-79
2022/11/26 10:22:36;;;;;;;6.05;2.00;;;14.00;57.20;;;;;;6079077;29;20040;-79
2022/11/26 10:26:00;;;;;;;7.80;1.95;;;14.30;56.60;;;;;;6085871;29;20043;-80
2022/11/26 10:29:17;;;;;;;8.85;2.55;;;14.50;56.00;;;;;;6091230;29;20056;-80
2022/11/26 10:32:36;;;;;;;8.73;2.47;;;14.60;55.50;;;;;;6092246;29;20188;-81
2022/11/26 10:35:41;;;;;;;10.40;2.30;;;14.80;55.10;;;;;;6090802;29;20132;-80
2022/11/26 10:38:42;;;;;;;7.47;2.65;;;15.20;54.80;;;;;;6066689;29;20040;-80
2022/11/26 10:41:43;;;;;;;11.50;2.95;;;15.60;54.00;;;;;;6102753;29;20048;-80
2022/11/26 10:44:45;;;;;;;11.18;2.78;;;16.10;53.30;;;;;;6092646;29;20369;-80
2022/11/26 10:47:46;;;;;;;23.33;8.38;;;16.40;52.10;;;;;;6095371;29;20066;-81
2022/11/26 10:51:16;;;;;;;9.57;2.30;;;16.70;51.60;;;;;;6103780;29;20434;-80
2022/11/26 10:54:34;;;;;;;4.60;1.70;;;17.00;51.40;;;;;;6086692;29;20497;-81
2022/11/26 10:57:42;;;;;;;8.33;1.73;;;17.40;50.30;;;;;;6076229;29;20032;-80
2022/11/26 11:00:49;;;;;;;11.77;2.08;;;17.70;49.10;;;;;;6097854;29;20088;-81
2022/11/26 11:03:53;;;;;;;11.48;2.42;;;17.90;48.10;;;;;;6087589;29;20063;-80
2022/11/26 11:06:55;;;;;;;5.82;1.88;;;18.20;47.30;;;;;;6097654;29;20059;-80
2022/11/26 11:10:13;;;;;;;6.05;1.80;;;18.60;46.60;;;;;;6090369;29;20119;-80
2022/11/26 11:13:14;;;;;;;13.73;2.03;;;19.00;45.30;;;;;;6087030;29;20052;-81
2022/11/26 11:16:27;;;;;;;6.68;2.22;;;19.40;43.90;;;;;;6089237;29;20497;-80
2022/11/26 11:19:30;;;;;;;4.15;1.70;;;19.70;43.70;;;;;;6086606;29;20040;-82
2022/11/26 11:22:31;;;;;;;8.43;1.60;;;20.00;42.90;;;;;;6092258;29;20151;-80
2022/11/26 11:25:35;;;;;;;6.22;1.60;;;20.30;42.50;;;;;;6087713;29;20040;-80
2022/11/26 11:28:41;;;;;;;15.07;2.25;;;20.70;41.80;;;;;;6091645;29;20066;-81
2022/11/26 11:31:45;;;;;;;8.63;1.80;;;21.00;40.90;;;;;;6091891;29;20517;-81
2022/11/26 11:34:47;;;;;;;6.53;2.05;;;21.20;40.50;;;;;;6093254;29;20055;-81
2022/11/26 11:37:53;;;;;;;4.07;1.38;;;21.40;39.70;;;;;;6077756;29;20033;-81
2022/11/26 11:40:54;;;;;;;9.23;1.73;;;21.70;39.00;;;;;;6090169;29;20064;-81
2022/11/26 11:44:25;;;;;;;6.28;1.48;;;21.80;38.50;;;;;;6075051;29;20047;-80
2022/11/26 11:47:42;;;;;;;4.70;1.45;;;21.60;39.00;;;;;;6049883;29;20051;-80
2022/11/26 11:50:53;;;;;;;3.80;1.30;;;21.20;39.40;;;;;;6053434;29;20393;-81
2022/11/26 11:54:02;;;;;;;7.20;2.00;;;20.90;39.60;;;;;;6054707;29;20040;-81
2022/11/26 11:57:09;;;;;;;7.32;1.67;;;20.50;39.80;;;;;;6045236;29;20578;-81
2022/11/26 12:00:20;;;;;;;6.38;1.50;;;20.00;40.20;;;;;;6046976;29;20123;-82
2022/11/26 12:03:39;;;;;;;6.80;1.83;;;19.60;40.50;;;;;;6063423;29;20088;-81
2022/11/26 12:07:19;;;;;;;4.07;2.20;;;19.20;41.30;;;;;;6053071;29;20036;-81
2022/11/26 12:10:36;;;;;;;;;;;18.80;41.90;;;;;;6058289;29;20040;-81
2022/11/26 12:13:49;;;;;;;4.53;1.35;;;18.50;42.40;;;;;;6061608;29;19946;-80
2022/11/26 12:16:56;;;;;;;7.60;1.63;;;18.30;42.60;;;;;;6072043;29;20036;-81
2022/11/26 12:20:13;;;;;;;4.43;1.70;;;18.00;42.80;;;;;;6057582;29;20073;-80
2022/11/26 12:23:21;;;;;;;4.20;1.48;;;17.90;43.10;;;;;;6050381;29;20068;-81
2022/11/26 12:26:25;;;;;;;4.80;1.48;;;17.70;43.40;;;;;;6093628;29;20040;-80
2022/11/26 12:29:43;;;;;;;5.25;1.73;;;17.50;43.60;;;;;;6086941;29;20053;-80
2022/11/26 12:32:50;;;;;;;3.53;1.38;;;17.40;43.90;;;;;;6075074;29;20041;-80
2022/11/26 12:35:58;;;;;;;7.25;2.13;;;17.40;44.10;;;;;;6092098;29;20047;-80
2022/11/26 12:39:04;;;;;;;3.40;1.50;;;17.40;44.10;;;;;;6093203;29;20392;-81
2022/11/26 12:42:40;;;;;;;11.73;2.60;;;17.40;44.10;;;;;;6068221;29;20052;-80
2022/11/26 12:45:54;;;;;;;7.32;3.20;;;17.40;44.30;;;;;;6088891;29;20062;-81
2022/11/26 12:49:17;;;;;;;5.13;2.10;;;17.40;44.40;;;;;;6079091;29;20054;-81
2022/11/26 12:52:29;;;;;;;5.03;1.80;;;17.40;44.50;;;;;;6094049;29;20118;-80
2022/11/26 12:55:39;;;;;;;5.32;1.73;;;17.20;44.40;;;;;;6086544;29;20043;-80
2022/11/26 12:58:51;;;;;;;4.55;1.63;;;17.10;44.50;;;;;;6084838;29;20033;-80
2022/11/26 13:01:52;;;;;;;4.60;1.15;;;17.00;44.60;;;;;;6075037;29;20045;-81
2022/11/26 13:04:53;;;;;;;5.45;1.85;;;16.90;44.60;;;;;;6090892;29;20151;-81
2022/11/26 13:08:16;;;;;;;5.60;2.05;;;16.90;44.70;;;;;;6082881;29;20072;-83
2022/11/26 13:12:04;;;;;;;6.03;1.92;;;16.80;44.80;;;;;;6075073;29;20056;-80
2022/11/26 13:15:23;;;;;;;7.95;1.58;;;16.80;44.90;;;;;;6041238;29;20412;-80
2022/11/26 13:18:35;;;;;;;3.55;1.63;;;16.90;45.00;;;;;;6044590;29;20043;-80
2022/11/26 13:21:45;;;;;;;3.95;1.50;;;17.00;44.90;;;;;;6034316;29;20104;-81
2022/11/26 13:25:14;;;;;;;3.58;1.38;;;17.00;44.90;;;;;;6044671;29;20037;-80
2022/11/26 13:28:43;;;;;;;;;;;17.00;44.90;;;;;;6033137;29;20060;-81
2022/11/26 13:32:28;;;;;;;3.42;1.08;;;17.10;44.90;;;;;;6047601;29;19995;-81
2022/11/26 13:35:44;;;;;;;7.43;1.80;;;17.10;44.90;;;;;;6044295;29;20044;-81
2022/11/26 13:38:48;;;;;;;4.50;1.38;;;17.10;45.00;;;;;;6049810;29;20491;-81
2022/11/26 13:42:13;;;;;;;10.68;1.50;;;17.00;45.50;;;;;;6051520;29;20510;-81
2022/11/26 13:45:32;;;;;;;4.50;1.63;;;17.10;44.90;;;;;;6052094;29;20546;-80
2022/11/26 13:48:48;;;;;;;4.40;1.55;;;17.10;44.80;;;;;;6052065;29;20621;-80
2022/11/26 13:52:04;;;;;;;5.72;1.65;;;17.20;44.90;;;;;;6089440;29;20139;-81
2022/11/26 13:55:15;;;;;;;4.80;1.38;;;17.30;44.70;;;;;;6077655;29;20036;-80
2022/11/26 13:58:28;;;;;;;4.30;1.10;;;17.30;44.40;;;;;;6098786;29;20040;-81
2022/11/26 14:01:39;;;;;;;6.53;1.95;;;17.30;44.30;;;;;;6100152;29;20067;-80
2022/11/26 14:04:40;;;;;;;6.18;2.03;;;17.40;44.30;;;;;;6091868;29;20052;-80
2022/11/26 14:07:42;;;;;;;7.55;1.75;;;17.30;44.60;;;;;;6095260;29;20052;-80
2022/11/26 14:10:43;;;;;;;3.67;1.90;;;17.10;45.00;;;;;;6085959;29;20481;-80
2022/11/26 14:14:22;;;;;;;2.67;1.48;;;16.90;45.40;;;;;;6109465;29;20131;-81
2022/11/26 14:17:25;;;;;;;6.53;2.33;;;16.80;45.90;;;;;;6093920;29;20079;-80
2022/11/26 14:20:25;;;;;;;5.05;1.80;;;16.80;46.10;;;;;;6098821;29;20047;-81
2022/11/26 14:23:49;;;;;;;6.03;2.13;;;16.70;46.10;;;;;;6100276;29;20461;-82
2022/11/26 14:26:50;;;;;;;5.22;1.88;;;16.60;46.30;;;;;;6090918;29;20051;-80
2022/11/26 14:30:12;;;;;;;6.55;2.20;;;16.60;46.40;;;;;;6078654;29;20524;-81
2022/11/26 14:33:22;;;;;;;6.70;2.08;;;16.60;46.50;;;;;;6103946;29;20036;-81
2022/11/26 14:36:26;;;;;;;6.95;1.50;;;16.50;46.60;;;;;;6077375;29;20036;-80
2022/11/26 14:39:28;;;;;;;9.48;1.95;;;16.50;46.40;;;;;;6089626;29;20040;-79
2022/11/26 14:42:29;;;;;;;4.13;1.38;;;16.30;46.40;;;;;;6088808;29;20037;-80
2022/11/26 14:45:30;;;;;;;6.18;1.58;;;16.20;46.60;;;;;;6091113;29;20118;-81
2022/11/26 14:48:34;;;;;;;3.10;1.67;;;16.10;46.80;;;;;;6090927;29;20048;-81
2022/11/26 14:51:35;;;;;;;5.40;1.67;;;16.00;47.00;;;;;;6068589;29;20670;-80
2022/11/26 14:54:39;;;;;;;7.55;2.10;;;15.80;47.20;;;;;;6101911;29;20478;-81
2022/11/26 14:57:43;;;;;;;3.10;1.65;;;15.70;47.40;;;;;;6089434;29;20032;-80
2022/11/26 15:00:59;;;;;;;8.70;1.80;;;15.70;47.70;;;;;;6088655;29;20035;-81
2022/11/26 15:04:02;;;;;;;6.88;2.50;;;15.60;47.90;;;;;;6080331;29;20036;-81
2022/11/26 15:07:05;;;;;;;7.82;1.80;;;15.50;48.10;;;;;;6080102;29;20430;-79
2022/11/26 15:10:18;;;;;;;7.10;2.28;;;15.50;48.20;;;;;;6085678;29;20104;-80
2022/11/26 15:13:27;;;;;;;5.75;1.98;;;15.50;48.40;;;;;;6085154;29;20471;-80
2022/11/26 15:16:40;;;;;;;5.43;2.15;;;15.40;48.50;;;;;;6090522;29;20058;-79
2022/11/26 15:19:41;;;;;;;6.63;2.10;;;15.40;48.80;;;;;;6085174;29;20038;-80
2022/11/26 15:22:50;;;;;;;7.57;2.30;;;15.30;49.00;;;;;;6078180;29;20036;-81
2022/11/26 15:25:54;;;;;;;16.35;4.03;;;15.20;49.40;;;;;;6091224;29;20047;-80
2022/11/26 15:28:55;;;;;;;9.13;3.08;;;15.10;49.70;;;;;;6092536;29;20128;-81
2022/11/26 15:31:56;;;;;;;15.30;3.33;;;15.00;50.00;;;;;;6098585;29;20087;-80
2022/11/26 15:35:00;;;;;;;7.55;3.88;;;14.90;50.40;;;;;;6087416;29;20044;-81
2022/11/26 15:38:14;;;;;;;11.90;4.22;;;14.80;50.70;;;;;;6101870;29;20128;-80
2022/11/26 15:41:18;;;;;;;10.63;3.63;;;14.60;50.90;;;;;;6078526;29;20052;-80
2022/11/26 15:44:23;;;;;;;5.65;2.88;;;14.40;51.30;;;;;;6075297;29;20389;-81
2022/11/26 15:47:27;;;;;;;7.18;3.38;;;14.30;51.80;;;;;;6088568;29;20119;-81
2022/11/26 15:50:35;;;;;;;8.23;3.47;;;14.20;52.10;;;;;;6099970;29;20040;-81
2022/11/26 15:53:37;;;;;;;;;;;14.00;52.40;;;;;;6096473;29;20036;-80
2022/11/26 15:56:38;;;;;;;9.18;3.50;;;14.00;52.70;;;;;;6089215;29;20078;-80
2022/11/26 15:59:44;;;;;;;8.38;3.50;;;13.90;53.10;;;;;;6089475;29;20437;-82
2022/11/26 16:02:45;;;;;;;11.18;3.90;;;13.70;53.30;;;;;;6083130;29;20161;-80
2022/11/26 16:05:54;;;;;;;7.80;3.50;;;13.60;53.50;;;;;;6106758;29;20378;-81